createdAt,value
2023-05-05T00:02:01.673Z,16.98
2023-05-05T00:04:28.178Z,10.50
2023-05-05T00:06:54.490Z,13.30
2023-05-05T00:09:21.530Z,9.23
2023-05-05T00:11:47.890Z,9.50
2023-05-05T00:14:14.251Z,19.60
2023-05-05T00:16:40.585Z,12.88
2023-05-05T00:19:06.956Z,13.05
2023-05-05T00:21:33.210Z,12.43
2023-05-05T00:23:59.491Z,10.50
2023-05-05T00:26:25.791Z,12.10
2023-05-05T00:28:52.227Z,12.98
2023-05-05T00:31:18.613Z,8.80
2023-05-05T00:33:44.918Z,7.68
2023-05-05T00:36:11.218Z,14.68
2023-05-05T00:38:38.042Z,20.35
2023-05-05T00:41:04.424Z,14.20
2023-05-05T00:43:30.658Z,13.85
2023-05-05T00:46:01.164Z,10.88
2023-05-05T00:48:29.620Z,10.35
2023-05-05T00:50:56.125Z,8.77
2023-05-05T00:53:22.483Z,10.57
2023-05-05T00:55:49.207Z,11.80
2023-05-05T00:58:15.505Z,13.38
2023-05-05T01:00:41.848Z,8.50
2023-05-05T01:03:08.249Z,10.02
2023-05-05T01:05:46.637Z,14.55
2023-05-05T01:08:12.968Z,13.90
2023-05-05T01:10:39.327Z,11.57
2023-05-05T01:13:18.633Z,12.70
2023-05-05T01:15:53.461Z,16.80
2023-05-05T01:18:32.087Z,13.00
2023-05-05T01:21:16.840Z,11.40
2023-05-05T01:24:02.029Z,16.08
2023-05-05T01:26:44.275Z,13.88
2023-05-05T01:29:29.270Z,17.08
2023-05-05T01:31:57.707Z,17.65
2023-05-05T01:34:38.854Z,16.52
2023-05-05T01:37:18.102Z,17.33
2023-05-05T01:39:45.332Z,16.75
2023-05-05T01:42:15.133Z,12.52
2023-05-05T01:44:42.286Z,14.18
2023-05-05T01:47:09.356Z,12.07
2023-05-05T01:49:35.951Z,11.65
2023-05-05T01:52:03.732Z,12.32
2023-05-05T01:54:32.018Z,15.85
2023-05-05T01:56:58.824Z,13.77
2023-05-05T01:59:26.421Z,11.73
2023-05-05T02:01:53.194Z,14.10
2023-05-05T02:04:22.792Z,16.02
2023-05-05T02:06:51.598Z,11.07
2023-05-05T02:09:17.997Z,10.63
2023-05-05T02:11:44.454Z,9.38
2023-05-05T02:14:11.656Z,11.20
2023-05-05T02:16:38.645Z,20.95
2023-05-05T02:19:05.342Z,9.88
2023-05-05T02:21:31.954Z,7.05
2023-05-05T02:23:58.313Z,8.30
2023-05-05T02:26:24.787Z,11.90
2023-05-05T02:28:51.104Z,9.38
2023-05-05T02:31:18.182Z,7.63
2023-05-05T02:33:45.621Z,10.05
2023-05-05T02:36:14.459Z,8.15
2023-05-05T02:38:42.824Z,8.75
2023-05-05T02:41:11.273Z,11.23
2023-05-05T02:43:38.766Z,12.52
2023-05-05T02:46:05.118Z,10.15
2023-05-05T02:48:31.469Z,9.07
2023-05-05T02:50:57.705Z,8.55
2023-05-05T02:53:26.138Z,8.23
2023-05-05T02:55:57.196Z,12.75
2023-05-05T02:58:26.162Z,8.27
2023-05-05T03:01:01.175Z,9.88
2023-05-05T03:03:47.971Z,8.63
2023-05-05T03:06:16.209Z,9.20
2023-05-05T03:08:51.557Z,13.45
2023-05-05T03:11:35.782Z,9.35
2023-05-05T03:14:12.221Z,7.00
2023-05-05T03:16:39.809Z,11.18
2023-05-05T03:19:07.263Z,9.98
2023-05-05T03:21:33.731Z,10.48
2023-05-05T03:24:00.042Z,8.95
2023-05-05T03:26:26.744Z,8.50
2023-05-05T03:28:52.997Z,12.63
2023-05-05T03:31:19.372Z,12.95
2023-05-05T03:33:45.668Z,9.38
2023-05-05T03:36:12.044Z,12.93
2023-05-05T03:38:38.394Z,12.00
2023-05-05T03:41:04.695Z,9.40
2023-05-05T03:43:31.017Z,13.15
2023-05-05T03:45:57.322Z,10.02
2023-05-05T03:48:23.655Z,10.60
2023-05-05T03:50:49.982Z,13.38
2023-05-05T03:53:16.206Z,10.18
2023-05-05T03:55:42.523Z,8.23
2023-05-05T03:58:08.818Z,9.73
2023-05-05T04:00:35.258Z,12.10
2023-05-05T04:03:01.599Z,7.65
2023-05-05T04:05:27.957Z,7.35
2023-05-05T04:07:54.244Z,11.30
2023-05-05T04:10:21.460Z,17.73
2023-05-05T04:12:47.777Z,11.80
2023-05-05T04:15:14.051Z,6.60
2023-05-05T04:17:40.351Z,11.23
2023-05-05T04:20:07.151Z,9.30
2023-05-05T04:22:33.587Z,6.53
2023-05-05T04:24:59.865Z,8.48
2023-05-05T04:27:28.788Z,9.00
2023-05-05T04:29:55.137Z,6.63
2023-05-05T04:32:21.492Z,7.20
2023-05-05T04:34:47.876Z,11.75
2023-05-05T04:37:14.532Z,7.93
2023-05-05T04:39:41.518Z,11.35
2023-05-05T04:42:08.782Z,12.77
2023-05-05T04:44:35.102Z,11.35
2023-05-05T04:47:01.437Z,15.73
2023-05-05T04:49:30.892Z,10.93
2023-05-05T04:51:57.464Z,9.00
2023-05-05T04:54:23.863Z,12.05
2023-05-05T04:56:50.288Z,12.88
2023-05-05T04:59:16.671Z,6.97
2023-05-05T05:01:42.980Z,14.23
2023-05-05T05:04:10.546Z,11.90
2023-05-05T05:06:36.857Z,11.50
2023-05-05T05:09:03.416Z,10.13
2023-05-05T05:11:29.802Z,10.40
2023-05-05T05:13:56.121Z,11.95
2023-05-05T05:16:22.418Z,11.02
2023-05-05T05:18:48.714Z,8.98
2023-05-05T05:21:15.025Z,13.23
2023-05-05T05:23:41.267Z,13.27
2023-05-05T05:26:07.551Z,12.68
2023-05-05T05:28:33.836Z,14.15
2023-05-05T05:31:00.315Z,9.27
2023-05-05T05:33:26.661Z,12.80
2023-05-05T05:35:52.962Z,13.52
2023-05-05T05:38:19.256Z,8.98
2023-05-05T05:40:45.608Z,10.50
2023-05-05T05:43:11.900Z,14.57
2023-05-05T05:45:38.238Z,14.45
2023-05-05T05:48:04.806Z,15.80
2023-05-05T05:50:31.075Z,16.48
2023-05-05T05:52:57.349Z,18.75
2023-05-05T05:55:23.674Z,13.63
2023-05-05T05:57:49.971Z,16.05
2023-05-05T06:00:16.294Z,17.95
2023-05-05T06:02:42.731Z,18.10
2023-05-05T06:05:09.370Z,19.05
2023-05-05T06:07:35.688Z,22.40
2023-05-05T06:10:14.331Z,22.92
2023-05-05T06:12:45.245Z,21.02
2023-05-05T06:15:11.507Z,21.08
2023-05-05T06:17:37.823Z,23.67
2023-05-05T06:20:05.319Z,21.63
2023-05-05T06:22:31.676Z,16.33
2023-05-05T06:24:57.940Z,24.40
2023-05-05T06:27:24.232Z,23.55
2023-05-05T06:29:50.596Z,16.52
2023-05-05T06:32:16.919Z,22.35
2023-05-05T06:34:44.565Z,18.90
2023-05-05T06:37:11.134Z,15.93
2023-05-05T06:39:37.433Z,19.77
2023-05-05T06:42:04.210Z,25.50
2023-05-05T06:44:31.105Z,23.92
2023-05-05T06:46:57.412Z,20.45
2023-05-05T06:49:23.760Z,23.85
2023-05-05T06:51:50.000Z,26.95
2023-05-05T06:54:16.642Z,17.38
2023-05-05T06:56:42.881Z,17.65
2023-05-05T06:59:09.154Z,18.17
2023-05-05T07:01:35.384Z,19.58
2023-05-05T07:04:01.771Z,19.58
2023-05-05T07:06:28.475Z,24.52
2023-05-05T07:08:54.802Z,16.33
2023-05-05T07:11:21.206Z,16.45
2023-05-05T07:13:49.151Z,17.90
2023-05-05T07:16:15.568Z,14.77
2023-05-05T07:18:41.815Z,15.00
2023-05-05T07:21:08.075Z,14.43
2023-05-05T07:23:34.521Z,23.55
2023-05-05T07:26:00.828Z,18.15
2023-05-05T07:28:27.075Z,16.38
2023-05-05T07:30:53.372Z,14.30
2023-05-05T07:33:19.629Z,15.40
2023-05-05T07:35:46.030Z,16.15
2023-05-05T07:38:12.379Z,15.73
2023-05-05T07:40:38.676Z,13.45
2023-05-05T07:43:05.053Z,18.13
2023-05-05T07:45:31.458Z,12.63
2023-05-05T07:47:57.809Z,15.20
2023-05-05T07:50:24.935Z,18.33
2023-05-05T07:52:56.360Z,11.48
2023-05-05T07:55:32.370Z,14.90
2023-05-05T07:57:58.678Z,11.13
2023-05-05T08:00:25.156Z,13.23
2023-05-05T08:02:51.677Z,13.20
2023-05-05T08:05:18.160Z,15.35
2023-05-05T08:07:44.437Z,8.35
2023-05-05T08:10:11.581Z,9.23
2023-05-05T08:12:38.131Z,11.23
2023-05-05T08:15:04.905Z,9.80
2023-05-05T08:17:43.108Z,14.23
2023-05-05T08:20:09.568Z,14.75
2023-05-05T08:22:35.859Z,14.80
2023-05-05T08:25:02.202Z,11.70
2023-05-05T08:27:28.519Z,13.02
2023-05-05T08:29:54.758Z,13.75
2023-05-05T08:32:21.042Z,11.27
2023-05-05T08:34:47.429Z,11.75
2023-05-05T08:37:13.744Z,9.45
2023-05-05T08:39:40.068Z,12.85
2023-05-05T08:42:06.405Z,11.38
2023-05-05T08:44:33.404Z,12.75
2023-05-05T08:47:00.768Z,9.02
2023-05-05T08:49:27.771Z,13.43
2023-05-05T08:51:54.766Z,12.15
2023-05-05T08:54:24.032Z,7.25
2023-05-05T08:56:51.559Z,6.03
2023-05-05T08:59:18.766Z,11.55
2023-05-05T09:01:45.353Z,5.70
2023-05-05T09:04:11.659Z,10.32
2023-05-05T09:06:38.192Z,10.10
2023-05-05T09:09:04.461Z,7.70
2023-05-05T09:11:31.525Z,10.23
2023-05-05T09:13:57.837Z,12.25
2023-05-05T09:16:24.183Z,8.93
2023-05-05T09:18:50.499Z,9.48
2023-05-05T09:21:24.579Z,15.68
2023-05-05T09:24:08.209Z,14.15
2023-05-05T09:26:45.269Z,10.38
2023-05-05T09:29:21.306Z,13.10
2023-05-05T09:32:08.691Z,22.08
2023-05-05T09:34:36.006Z,9.10
2023-05-05T09:37:02.432Z,11.00
2023-05-05T09:39:28.813Z,14.57
2023-05-05T09:41:55.293Z,10.20
2023-05-05T09:44:35.050Z,7.60
2023-05-05T09:47:01.695Z,11.75
2023-05-05T09:49:28.078Z,10.43
2023-05-05T09:51:54.859Z,4.72
2023-05-05T09:54:25.265Z,8.13
2023-05-05T09:59:18.836Z,10.25
2023-05-05T10:01:45.256Z,14.93
2023-05-05T10:04:27.970Z,11.70
2023-05-05T10:06:55.233Z,11.30
2023-05-05T10:09:21.617Z,11.02
2023-05-05T10:11:47.901Z,15.40
2023-05-05T10:14:20.483Z,8.68
2023-05-05T10:16:48.829Z,7.53
2023-05-05T10:19:16.457Z,9.55
2023-05-05T10:21:47.269Z,8.65
2023-05-05T10:24:18.191Z,7.60
2023-05-05T10:26:46.221Z,5.03
2023-05-05T10:29:21.446Z,11.10
2023-05-05T10:31:50.506Z,6.15
2023-05-05T10:34:19.122Z,5.47
2023-05-05T10:36:45.559Z,1.98
2023-05-05T10:39:11.872Z,6.07
2023-05-05T10:41:38.507Z,4.07
2023-05-05T10:44:05.084Z,5.25
2023-05-05T10:46:31.630Z,3.92
2023-05-05T10:49:15.013Z,4.22
2023-05-05T10:51:49.134Z,4.75
2023-05-05T10:54:23.323Z,8.93
2023-05-05T10:56:49.914Z,5.40
2023-05-05T10:59:39.488Z,5.15
2023-05-05T11:02:18.348Z,4.47
2023-05-05T11:04:57.772Z,7.45
2023-05-05T11:07:24.448Z,6.00
2023-05-05T11:09:56.705Z,2.80
2023-05-05T11:12:23.028Z,6.15
2023-05-05T11:15:09.294Z,7.65
2023-05-05T11:17:46.121Z,8.65
2023-05-05T11:20:12.478Z,6.90
2023-05-05T11:22:57.521Z,7.35
2023-05-05T11:25:46.525Z,10.85
2023-05-05T11:28:14.003Z,9.32
2023-05-05T11:30:59.198Z,8.73
2023-05-05T11:33:26.087Z,11.65
2023-05-05T11:35:55.229Z,8.00
2023-05-05T11:38:40.053Z,9.05
2023-05-05T11:41:13.401Z,13.35
2023-05-05T11:43:40.038Z,11.82
2023-05-05T11:46:09.569Z,6.03
2023-05-05T11:48:43.921Z,4.57
2023-05-05T11:51:13.780Z,7.78
2023-05-05T11:53:41.844Z,7.72
2023-05-05T11:56:09.213Z,7.45
2023-05-05T11:58:35.444Z,7.72
2023-05-05T12:01:11.487Z,8.20
2023-05-05T12:03:38.667Z,7.10
2023-05-05T12:06:05.626Z,9.15
2023-05-05T12:08:38.235Z,7.97
2023-05-05T12:11:05.147Z,7.65
2023-05-05T12:13:31.448Z,8.68
2023-05-05T12:16:07.812Z,5.65
2023-05-05T12:18:34.115Z,6.07
2023-05-05T12:21:00.548Z,11.35
2023-05-05T12:23:29.979Z,6.82
2023-05-05T12:25:56.259Z,9.15
2023-05-05T12:28:22.563Z,13.23
2023-05-05T12:30:58.776Z,8.32
2023-05-05T12:33:25.369Z,9.60
2023-05-05T12:35:51.708Z,8.65
2023-05-05T12:38:17.986Z,6.78
2023-05-05T12:40:45.452Z,8.27
2023-05-05T12:43:29.962Z,9.40
2023-05-05T12:46:11.756Z,9.63
2023-05-05T12:48:39.021Z,12.60
2023-05-05T12:51:16.602Z,9.88
2023-05-05T12:53:42.952Z,7.25
2023-05-05T12:56:27.909Z,7.57
2023-05-05T12:58:55.590Z,12.18
2023-05-05T13:01:22.024Z,4.80
2023-05-05T13:04:03.348Z,11.45
2023-05-05T13:06:29.596Z,5.00
2023-05-05T13:08:57.065Z,5.93
2023-05-05T13:11:23.311Z,4.53
2023-05-05T13:13:49.536Z,8.93
2023-05-05T13:16:16.032Z,6.75
2023-05-05T13:18:45.470Z,6.15
2023-05-05T13:21:11.873Z,4.88
2023-05-05T13:23:38.110Z,5.68
2023-05-05T13:26:04.565Z,7.28
2023-05-05T13:28:30.824Z,7.45
2023-05-05T13:30:58.581Z,3.10
2023-05-05T13:33:25.048Z,5.97
2023-05-05T13:35:51.307Z,5.15
2023-05-05T13:38:17.608Z,4.43
2023-05-05T13:40:43.920Z,4.28
2023-05-05T13:43:10.245Z,5.82
2023-05-05T13:45:36.625Z,8.13
2023-05-05T13:48:02.945Z,2.45
2023-05-05T13:50:29.334Z,7.03
2023-05-05T13:52:55.637Z,3.92
2023-05-05T13:55:22.148Z,7.32
2023-05-05T13:57:48.413Z,5.47
2023-05-05T14:00:15.061Z,8.90
2023-05-05T14:02:41.596Z,3.67
2023-05-05T14:05:08.525Z,7.10
2023-05-05T14:07:34.936Z,1.75
2023-05-05T14:10:01.177Z,4.72
2023-05-05T14:12:27.851Z,6.72
2023-05-05T14:14:54.131Z,3.53
2023-05-05T14:17:20.583Z,4.35
2023-05-05T14:19:46.824Z,5.20
2023-05-05T14:22:13.076Z,3.13
2023-05-05T14:24:39.408Z,2.28
2023-05-05T14:27:05.712Z,3.10
2023-05-05T14:29:32.022Z,5.68
2023-05-05T14:31:58.484Z,3.33
2023-05-05T14:34:24.794Z,3.45
2023-05-05T14:36:51.116Z,2.20
2023-05-05T14:39:17.419Z,4.05
2023-05-05T14:41:43.713Z,2.42
2023-05-05T14:44:09.948Z,4.43
2023-05-05T14:46:36.332Z,2.17
2023-05-05T14:49:02.659Z,3.67
2023-05-05T14:51:29.010Z,4.55
2023-05-05T14:53:55.625Z,4.40
2023-05-05T14:56:22.576Z,1.95
2023-05-05T14:58:49.456Z,2.55
2023-05-05T15:01:16.228Z,1.95
2023-05-05T15:03:42.684Z,4.40
2023-05-05T15:06:09.404Z,2.47
2023-05-05T15:08:35.741Z,2.83
2023-05-05T15:11:02.398Z,2.25
2023-05-05T15:13:29.700Z,1.92
2023-05-05T15:15:56.064Z,3.50
2023-05-05T15:18:22.428Z,1.50
2023-05-05T15:20:48.692Z,7.30
2023-05-05T15:23:15.265Z,1.33
2023-05-05T15:25:41.557Z,3.10
2023-05-05T15:28:08.128Z,1.23
2023-05-05T15:30:34.415Z,1.52
2023-05-05T15:33:00.783Z,1.10
2023-05-05T15:35:27.078Z,2.38
2023-05-05T15:37:53.374Z,2.47
2023-05-05T15:40:19.706Z,2.85
2023-05-05T15:42:49.667Z,6.65
2023-05-05T15:45:17.020Z,1.17
2023-05-05T15:47:43.349Z,2.20
2023-05-05T15:50:09.804Z,2.97
2023-05-05T15:52:36.125Z,1.30
2023-05-05T15:55:02.438Z,4.22
2023-05-05T15:57:28.782Z,1.75
2023-05-05T15:59:55.072Z,3.80
2023-05-05T16:02:21.887Z,1.67
2023-05-05T16:04:48.182Z,2.42
2023-05-05T16:07:14.400Z,4.40
2023-05-05T16:09:40.722Z,3.10
2023-05-05T16:12:07.001Z,1.60
2023-05-05T16:14:33.314Z,4.18
2023-05-05T16:17:01.095Z,4.70
2023-05-05T16:19:30.181Z,1.77
2023-05-05T16:21:57.271Z,1.83
2023-05-05T16:24:23.568Z,1.27
2023-05-05T16:26:49.874Z,2.65
2023-05-05T16:29:16.507Z,1.95
2023-05-05T16:31:42.883Z,2.05
2023-05-05T16:34:09.134Z,1.13
2023-05-05T16:36:35.533Z,0.52
2023-05-05T16:39:01.832Z,1.02
2023-05-05T16:41:28.147Z,2.88
2023-05-05T16:43:54.530Z,1.00
2023-05-05T16:46:20.954Z,1.35
2023-05-05T16:48:47.288Z,2.80
2023-05-05T16:51:13.545Z,2.08
2023-05-05T16:53:40.077Z,1.15
2023-05-05T16:56:06.401Z,1.92
2023-05-05T16:58:32.655Z,1.00
2023-05-05T17:01:01.812Z,1.48
2023-05-05T17:03:28.102Z,5.05
2023-05-05T17:05:54.518Z,12.48
2023-05-05T17:08:20.880Z,1.88
2023-05-05T17:10:47.121Z,1.77
2023-05-05T17:13:14.024Z,1.50
2023-05-05T17:15:40.922Z,2.30
2023-05-05T17:18:07.821Z,1.45
2023-05-05T17:20:34.441Z,1.60
2023-05-05T17:23:02.084Z,1.83
2023-05-05T17:25:28.330Z,1.83
2023-05-05T17:27:54.965Z,4.65
2023-05-05T17:30:21.288Z,1.67
2023-05-05T17:32:47.936Z,1.42
2023-05-05T17:35:14.540Z,0.82
2023-05-05T17:37:41.030Z,1.15
2023-05-05T17:40:07.705Z,1.10
2023-05-05T17:42:34.001Z,1.75
2023-05-05T17:45:00.322Z,2.90
2023-05-05T17:47:26.996Z,1.52
2023-05-05T17:49:54.363Z,1.88
2023-05-05T17:52:21.049Z,2.05
2023-05-05T17:54:48.652Z,1.10
2023-05-05T17:57:16.986Z,2.47
2023-05-05T17:59:43.258Z,5.35
2023-05-05T18:02:09.653Z,2.03
2023-05-05T18:04:36.236Z,1.73
2023-05-05T18:07:02.697Z,1.80
2023-05-05T18:09:28.992Z,1.20
2023-05-05T18:11:55.376Z,3.00
2023-05-05T18:14:23.697Z,1.83
2023-05-05T18:16:52.209Z,1.65
2023-05-05T18:19:21.818Z,5.00
2023-05-05T18:21:48.585Z,2.87
2023-05-05T18:24:20.153Z,2.00
2023-05-05T18:26:47.841Z,1.58
2023-05-05T18:29:15.982Z,1.77
2023-05-05T18:31:43.833Z,1.60
2023-05-05T18:34:10.149Z,1.77
2023-05-05T18:36:36.476Z,1.90
2023-05-05T18:39:02.985Z,2.97
2023-05-05T18:41:29.296Z,1.92
2023-05-05T18:43:55.577Z,4.53
2023-05-05T18:46:22.485Z,3.45
2023-05-05T18:48:48.805Z,2.78
2023-05-05T18:51:15.052Z,7.55
2023-05-05T18:53:41.786Z,5.38
2023-05-05T18:56:08.136Z,3.20
2023-05-05T18:58:34.611Z,4.63
2023-05-05T19:01:00.912Z,2.38
2023-05-05T19:03:27.259Z,2.25
2023-05-05T19:05:54.085Z,3.97
2023-05-05T19:08:20.456Z,6.05
2023-05-05T19:10:46.900Z,6.38
2023-05-05T19:13:13.130Z,2.70
2023-05-05T19:15:39.462Z,2.85
2023-05-05T19:18:06.343Z,4.50
2023-05-05T19:20:32.666Z,15.13
2023-05-05T19:23:03.494Z,3.65
2023-05-05T19:25:30.511Z,3.22
2023-05-05T19:27:56.757Z,4.38
2023-05-05T19:30:23.135Z,3.53
2023-05-05T19:32:49.411Z,2.75
2023-05-05T19:35:15.738Z,6.95
2023-05-05T19:37:42.039Z,2.95
2023-05-05T19:40:08.909Z,6.50
2023-05-05T19:42:35.388Z,2.83
2023-05-05T19:45:01.996Z,3.05
2023-05-05T19:47:28.304Z,2.50
2023-05-05T19:49:54.683Z,5.25
2023-05-05T19:52:24.013Z,3.60
2023-05-05T19:54:50.497Z,3.63
2023-05-05T19:57:17.826Z,4.18
2023-05-05T19:59:44.397Z,3.08
2023-05-05T20:02:12.062Z,3.58
2023-05-05T20:04:38.453Z,3.03
2023-05-05T20:07:05.023Z,7.40
2023-05-05T20:09:31.320Z,3.15
2023-05-05T20:11:58.200Z,5.35
2023-05-05T20:14:24.596Z,4.85
2023-05-05T20:16:50.838Z,6.32
2023-05-05T20:19:18.263Z,3.15
2023-05-05T20:21:44.656Z,5.22
2023-05-05T20:24:11.008Z,8.45
2023-05-05T20:26:37.606Z,3.60
2023-05-05T20:29:03.902Z,5.47
2023-05-05T20:31:30.264Z,5.45
2023-05-05T20:33:56.641Z,4.88
2023-05-05T20:36:26.127Z,5.03
2023-05-05T20:38:52.605Z,7.75
2023-05-05T20:41:18.861Z,6.10
2023-05-05T20:43:45.172Z,7.43
2023-05-05T20:46:13.083Z,5.50
2023-05-05T20:48:42.353Z,6.38
2023-05-05T20:51:09.393Z,9.67
2023-05-05T20:53:35.912Z,6.38
2023-05-05T20:56:02.398Z,11.68
2023-05-05T20:58:29.272Z,5.72
2023-05-05T21:00:55.750Z,4.35
2023-05-05T21:03:22.125Z,6.43
2023-05-05T21:05:48.487Z,4.40
2023-05-05T21:08:14.781Z,5.50
2023-05-05T21:10:41.087Z,9.32
2023-05-05T21:13:07.686Z,5.40
2023-05-05T21:15:37.247Z,5.65
2023-05-05T21:18:03.822Z,4.37
2023-05-05T21:20:30.176Z,3.50
2023-05-05T21:22:56.795Z,4.20
2023-05-05T21:25:23.284Z,9.00
2023-05-05T21:27:49.630Z,9.18
2023-05-05T21:30:16.659Z,6.60
2023-05-05T21:32:43.491Z,7.72
2023-05-05T21:35:10.097Z,4.10
2023-05-05T21:37:36.947Z,4.10
2023-05-05T21:40:03.342Z,3.83
2023-05-05T21:42:30.588Z,5.45
2023-05-05T21:44:56.891Z,4.57
2023-05-05T21:47:23.521Z,4.93
2023-05-05T21:49:49.927Z,3.42
2023-05-05T21:52:16.547Z,3.38
2023-05-05T21:54:42.908Z,3.63
2023-05-05T21:57:09.164Z,6.32
2023-05-05T21:59:35.925Z,3.85
2023-05-05T22:02:02.311Z,4.60
2023-05-05T22:04:28.795Z,3.53
2023-05-05T22:06:55.021Z,10.07
2023-05-05T22:09:21.341Z,6.03
2023-05-05T22:11:47.655Z,7.78
2023-05-05T22:14:13.958Z,8.68
2023-05-05T22:16:40.291Z,6.28
2023-05-05T22:19:06.811Z,7.85
2023-05-05T22:21:33.135Z,4.60
2023-05-05T22:23:59.502Z,5.03
2023-05-05T22:26:25.909Z,7.50
2023-05-05T22:28:52.204Z,5.32
2023-05-05T22:31:18.584Z,4.13
2023-05-05T22:33:44.938Z,16.90
2023-05-05T22:36:11.610Z,11.52
2023-05-05T22:38:37.894Z,6.00
2023-05-05T22:41:05.532Z,6.57
2023-05-05T22:43:31.765Z,4.82
2023-05-05T22:45:58.052Z,4.95
2023-05-05T22:48:24.332Z,3.80
2023-05-05T22:50:50.899Z,8.48
2023-05-05T22:53:17.235Z,13.85
2023-05-05T22:55:43.605Z,5.28
2023-05-05T22:58:10.049Z,4.97
2023-05-05T23:00:36.483Z,6.43
2023-05-05T23:03:02.820Z,7.63
2023-05-05T23:05:29.192Z,7.75
2023-05-05T23:07:55.710Z,5.32
2023-05-05T23:10:21.962Z,6.70
2023-05-05T23:12:48.208Z,6.40
2023-05-05T23:15:14.519Z,5.35
2023-05-05T23:17:41.135Z,8.98
2023-05-05T23:20:09.700Z,7.30
2023-05-05T23:22:36.049Z,6.05
2023-05-05T23:25:02.405Z,8.02
2023-05-05T23:27:28.705Z,9.48
2023-05-05T23:29:55.022Z,8.38
2023-05-05T23:32:21.347Z,7.50
2023-05-05T23:34:47.632Z,8.75
2023-05-05T23:37:14.579Z,8.30
2023-05-05T23:39:41.347Z,13.65
2023-05-05T23:42:07.745Z,7.03
2023-05-05T23:44:34.049Z,9.52
2023-05-05T23:47:00.452Z,6.60
2023-05-05T23:49:26.704Z,7.88
2023-05-05T23:51:52.986Z,7.40
2023-05-05T23:54:19.285Z,9.68
2023-05-05T23:56:47.694Z,7.18
2023-05-05T23:59:13.998Z,10.20
